Time;durP1;ratioP1;P1;durP2;ratioP2;P2;SDS_P1;SDS_P2;PMS_P1;PMS_P2;Temp;Humidity;BMP_temperature;BMP_pressure;BME280_temperature;BME280_humidity;BME280_pressure;Samples;Min_cycle;Max_cycle;Signal;HPM_P1;HPM_P2
2023/01/27 00:00:24;;;;;;;;;;;6.30;99.90;;;;;;5016553;28;19985;-74
2023/01/27 00:02:50;;;;;;;;;;;6.30;99.90;;;;;;5013552;28;20014;-75
2023/01/27 00:05:16;;;;;;;;;;;6.30;99.90;;;;;;5017831;28;19921;-78
2023/01/27 00:07:45;;;;;;;;;;;6.30;99.90;;;;;;5013172;28;19922;-73
2023/01/27 00:10:12;;;;;;;;;;;6.30;99.90;;;;;;5005213;28;19909;-75
2023/01/27 00:15:22;;;;;;;;;;;6.30;99.90;;;;;;5012456;28;19920;-75
2023/01/27 00:17:48;;;;;;;;;;;6.30;99.90;;;;;;5011727;28;20526;-78
2023/01/27 00:24:34;;;;;;;;;;;6.20;99.90;;;;;;5011534;28;20237;-75
2023/01/27 00:25:49;;;;;;;;;;;6.20;99.90;;;;;;5007130;28;19979;-76
2023/01/27 00:28:21;;;;;;;;;;;6.30;99.90;;;;;;5019999;28;20575;-78
2023/01/27 00:30:48;;;;;;;;;;;6.20;99.90;;;;;;5015450;28;19917;-76
2023/01/27 00:33:26;;;;;;;;;;;6.20;99.90;;;;;;5017416;28;19917;-74
2023/01/27 00:35:59;;;;;;;;;;;6.30;99.90;;;;;;5012580;28;20009;-74
2023/01/27 00:38:25;;;;;;;;;;;6.20;99.90;;;;;;5008973;28;19972;-74
2023/01/27 00:43:35;;;;;;;;;;;6.10;99.90;;;;;;5003928;28;20110;-75
2023/01/27 00:46:00;;;;;;;;;;;6.10;99.90;;;;;;5010121;28;20023;-73
2023/01/27 00:48:26;;;;;;;;;;;6.10;99.90;;;;;;5006153;28;20346;-74
2023/01/27 00:50:52;;;;;;;;;;;6.10;99.90;;;;;;5007580;28;20456;-74
2023/01/27 00:53:17;;;;;;;;;;;6.00;99.90;;;;;;5008021;28;20338;-75
2023/01/27 00:55:43;;;;;;;;;;;6.00;99.90;;;;;;5007408;28;19914;-75
2023/01/27 00:58:08;;;;;;;;;;;6.00;99.90;;;;;;5007484;28;19917;-75
2023/01/27 01:00:34;;;;;;;;;;;5.90;99.90;;;;;;5011381;28;20004;-75
2023/01/27 01:02:59;;;;;;;;;;;5.90;99.90;;;;;;5008679;28;20286;-73
2023/01/27 01:05:25;;;;;;;;;;;5.80;99.90;;;;;;5008343;28;19921;-75
2023/01/27 01:07:50;;;;;;;;;;;5.80;99.90;;;;;;4999975;28;19936;-74
2023/01/27 01:10:16;;;;;;;;;;;5.80;99.90;;;;;;5014254;28;19917;-74
2023/01/27 01:12:42;;;;;;;;;;;5.80;99.90;;;;;;5008833;28;20418;-73
2023/01/27 01:15:07;;;;;;;;;;;5.80;99.90;;;;;;5008457;28;19924;-74
2023/01/27 01:17:33;;;;;;;;;;;5.80;99.90;;;;;;5012337;28;19920;-74
2023/01/27 01:19:58;;;;;;;;;;;5.90;99.90;;;;;;5014615;28;19917;-74
2023/01/27 01:22:24;;;;;;;;;;;5.90;99.90;;;;;;5014671;28;19913;-75
2023/01/27 01:24:49;;;;;;;;;;;5.80;99.90;;;;;;5014213;28;19917;-74
2023/01/27 01:27:15;;;;;;;;;;;5.70;99.90;;;;;;5006467;28;20386;-77
2023/01/27 01:29:40;;;;;;;;;;;5.70;99.90;;;;;;5014666;28;19988;-74
2023/01/27 01:32:08;;;;;;;;;;;5.70;99.90;;;;;;5002634;28;19928;-74
2023/01/27 01:34:34;;;;;;;;;;;5.70;99.90;;;;;;5006435;28;20028;-73
2023/01/27 01:37:00;;;;;;;;;;;5.70;99.90;;;;;;5003476;28;19910;-75
2023/01/27 01:39:25;;;;;;;;;;;5.70;99.90;;;;;;5012386;28;20696;-74
2023/01/27 01:41:51;;;;;;;;;;;5.70;99.90;;;;;;5006722;28;20038;-75
2023/01/27 01:44:20;;;;;;;;;;;5.70;99.90;;;;;;5005295;28;19928;-73
2023/01/27 01:46:46;;;;;;;;;;;5.70;99.90;;;;;;5006610;28;19918;-74
2023/01/27 01:49:12;;;;;;;;;;;5.70;99.90;;;;;;5003718;28;19990;-75
2023/01/27 01:51:40;;;;;;;;;;;5.70;99.90;;;;;;5021723;28;19997;-74
2023/01/27 01:54:05;;;;;;;;;;;5.70;99.90;;;;;;5030281;28;19905;-75
2023/01/27 01:56:34;;;;;;;;;;;5.70;99.90;;;;;;5026514;28;19932;-73
2023/01/27 01:59:02;;;;;;;;;;;5.70;99.90;;;;;;5023550;28;19980;-74
2023/01/27 02:01:28;;;;;;;;;;;5.60;99.90;;;;;;5024079;28;19913;-76
2023/01/27 02:03:56;;;;;;;;;;;5.60;99.90;;;;;;5030318;28;19916;-73
2023/01/27 02:06:21;;;;;;;;;;;5.60;99.90;;;;;;5017424;28;19921;-73
2023/01/27 02:08:48;;;;;;;;;;;5.60;99.90;;;;;;5015277;28;19921;-73
2023/01/27 02:11:14;;;;;;;;;;;5.70;99.90;;;;;;5011128;28;20390;-74
2023/01/27 02:13:40;;;;;;;;;;;5.60;99.90;;;;;;5014940;28;19925;-73
2023/01/27 02:16:07;;;;;;;;;;;5.60;99.90;;;;;;5011700;28;20624;-74
2023/01/27 02:18:32;;;;;;;;;;;5.60;99.90;;;;;;5008393;28;19937;-75
2023/01/27 02:20:58;;;;;;;;;;;5.60;99.90;;;;;;5016707;28;20580;-73
2023/01/27 02:23:23;;;;;;;;;;;5.60;99.90;;;;;;5010534;28;19910;-74
2023/01/27 02:25:55;;;;;;;;;;;5.50;99.90;;;;;;5007031;28;19926;-74
2023/01/27 02:28:21;;;;;;;;;;;5.50;99.90;;;;;;5003469;28;20310;-74
2023/01/27 02:30:46;;;;;;;;;;;5.60;99.90;;;;;;5004385;28;20394;-75
2023/01/27 02:33:12;;;;;;;;;;;5.60;99.90;;;;;;5000541;28;19916;-74
2023/01/27 02:35:41;;;;;;;;;;;5.60;99.90;;;;;;5016840;28;19913;-74
2023/01/27 02:38:08;;;;;;;;;;;5.60;99.90;;;;;;5008713;28;19914;-74
2023/01/27 02:40:35;;;;;;;;;;;5.70;99.90;;;;;;5007565;28;19920;-74
2023/01/27 02:43:03;;;;;;;;;;;5.60;99.90;;;;;;5008613;28;19910;-75
2023/01/27 02:45:28;;;;;;;;;;;5.50;99.90;;;;;;5018547;28;19933;-74
2023/01/27 02:47:53;;;;;;;;;;;5.50;99.90;;;;;;5023043;28;20068;-74
2023/01/27 02:50:19;;;;;;;;;;;5.40;99.90;;;;;;5004234;28;20352;-74
2023/01/27 02:52:45;;;;;;;;;;;5.40;99.90;;;;;;5006775;28;19913;-77
2023/01/27 02:55:10;;;;;;;;;;;5.40;99.90;;;;;;5001024;28;20034;-74
2023/01/27 02:57:36;;;;;;;;;;;5.30;99.90;;;;;;5001535;28;19924;-75
2023/01/27 03:00:02;;;;;;;;;;;5.40;99.90;;;;;;5004619;28;20000;-74
2023/01/27 03:02:29;;;;;;;;;;;5.40;99.90;;;;;;5008986;28;19917;-73
2023/01/27 03:04:55;;;;;;;;;;;5.40;99.90;;;;;;5006116;28;19920;-73
2023/01/27 03:07:21;;;;;;;;;;;5.30;99.90;;;;;;5013825;28;19917;-73
2023/01/27 03:09:47;;;;;;;;;;;5.30;99.90;;;;;;5011150;28;20023;-74
2023/01/27 03:12:18;;;;;;;;;;;5.30;99.90;;;;;;5008515;28;19956;-75
2023/01/27 03:20:12;;;;;;;;;;;5.20;99.90;;;;;;5017923;28;19920;-72
2023/01/27 03:22:38;;;;;;;;;;;5.30;99.90;;;;;;5026329;28;19933;-74
2023/01/27 03:25:03;;;;;;;;;;;5.30;99.90;;;;;;5020548;28;19967;-74
2023/01/27 03:27:29;;;;;;;;;;;5.30;99.90;;;;;;5007645;28;20258;-74
2023/01/27 03:29:55;;;;;;;;;;;5.30;99.90;;;;;;5003350;28;20028;-74
2023/01/27 03:32:22;;;;;;;;;;;5.30;99.90;;;;;;5011246;28;19914;-74
2023/01/27 03:34:47;;;;;;;;;;;5.30;99.90;;;;;;5013857;28;19909;-74
2023/01/27 03:48:11;;;;;;;;;;;5.30;99.90;;;;;;5006337;28;19924;-74
2023/01/27 03:50:41;;;;;;;;;;;5.30;99.90;;;;;;5007019;28;19910;-75
2023/01/27 03:53:08;;;;;;;;;;;5.30;99.90;;;;;;5013870;28;19943;-75
2023/01/27 03:55:34;;;;;;;;;;;5.20;99.90;;;;;;5007980;28;19913;-74
2023/01/27 03:58:18;;;;;;;;;;;5.20;99.90;;;;;;5012963;28;20138;-74
2023/01/27 04:00:45;;;;;;;;;;;5.20;99.90;;;;;;5011689;28;20334;-74
2023/01/27 04:08:42;;;;;;;;;;;4.90;99.90;;;;;;5011574;28;20012;-74
2023/01/27 04:13:52;;;;;;;;;;;4.80;99.90;;;;;;5016422;28;19916;-75
2023/01/27 04:16:18;;;;;;;;;;;4.70;99.90;;;;;;5008544;28;19910;-71
2023/01/27 04:18:45;;;;;;;;;;;4.80;99.90;;;;;;5017377;28;19913;-72
2023/01/27 04:21:12;;;;;;;;;;;4.80;99.90;;;;;;5010235;28;19920;-72
2023/01/27 04:23:37;;;;;;;;;;;4.80;99.90;;;;;;5018441;28;19917;-71
2023/01/27 04:26:03;;;;;;;;;;;4.70;99.90;;;;;;5010176;28;19971;-72
2023/01/27 04:28:29;;;;;;;;;;;4.70;99.90;;;;;;5010475;28;19922;-70
2023/01/27 04:30:54;;;;;;;;;;;4.70;99.90;;;;;;5016476;28;19916;-73
2023/01/27 04:33:20;;;;;;;;;;;4.70;99.90;;;;;;5002711;28;19909;-73
2023/01/27 04:35:45;;;;;;;;;;;4.70;99.90;;;;;;5010006;28;19967;-72
2023/01/27 04:38:11;;;;;;;;;;;4.70;99.90;;;;;;5017648;28;19910;-71
2023/01/27 04:40:37;;;;;;;;;;;4.70;99.90;;;;;;5010327;28;19926;-72
2023/01/27 04:43:03;;;;;;;;;;;4.70;99.90;;;;;;5004604;28;19968;-71
2023/01/27 04:45:28;;;;;;;;;;;4.60;99.90;;;;;;5012193;28;19918;-72
2023/01/27 04:47:54;;;;;;;;;;;4.60;99.90;;;;;;5014582;28;19924;-72
2023/01/27 04:50:19;;;;;;;;;;;4.60;99.90;;;;;;5006009;28;19921;-72
2023/01/27 04:52:45;;;;;;;;;;;4.70;99.90;;;;;;5008594;28;19914;-72
2023/01/27 04:55:10;;;;;;;;;;;4.70;99.90;;;;;;5006329;28;19921;-71
2023/01/27 04:57:36;;;;;;;;;;;4.70;99.90;;;;;;5003036;28;20608;-71
2023/01/27 05:00:03;;;;;;;;;;;4.60;99.90;;;;;;5020562;28;19920;-71
2023/01/27 05:02:28;;;;;;;;;;;4.60;99.90;;;;;;5008635;28;19910;-71
2023/01/27 05:04:54;;;;;;;;;;;4.60;99.90;;;;;;5018396;28;19913;-71
2023/01/27 05:07:20;;;;;;;;;;;4.60;99.90;;;;;;5017004;28;19953;-71
2023/01/27 05:09:45;;;;;;;;;;;4.60;99.90;;;;;;5019763;28;19917;-71
2023/01/27 05:12:11;;;;;;;;;;;4.60;99.90;;;;;;5010852;28;20014;-72
2023/01/27 05:14:36;;;;;;;;;;;4.60;99.90;;;;;;5007272;28;19917;-71
2023/01/27 05:17:02;;;;;;;;;;;4.60;99.90;;;;;;5002510;28;20741;-71
2023/01/27 05:19:30;;;;;;;;;;;4.60;99.90;;;;;;5007593;28;19924;-73
2023/01/27 05:21:55;;;;;;;;;;;4.60;99.90;;;;;;5000395;28;19910;-72
2023/01/27 05:24:21;;;;;;;;;;;4.60;99.90;;;;;;5000376;28;19920;-71
2023/01/27 05:26:46;;;;;;;;;;;4.60;99.90;;;;;;5007108;28;19951;-72
2023/01/27 05:29:12;;;;;;;;;;;4.60;99.90;;;;;;5004802;28;20290;-72
2023/01/27 05:31:38;;;;;;;;;;;4.60;99.90;;;;;;5016782;28;19971;-70
2023/01/27 05:34:03;;;;;;;;;;;4.60;99.90;;;;;;5008706;28;19917;-72
2023/01/27 05:36:29;;;;;;;;;;;4.70;99.90;;;;;;5012151;28;19949;-71
2023/01/27 05:38:55;;;;;;;;;;;4.70;99.90;;;;;;5011751;28;19913;-71
2023/01/27 05:41:21;;;;;;;;;;;4.70;99.90;;;;;;5004389;28;20011;-71
2023/01/27 05:43:50;;;;;;;;;;;4.70;99.90;;;;;;5007952;28;19917;-72
2023/01/27 05:46:17;;;;;;;;;;;4.70;99.90;;;;;;5013279;28;20433;-72
2023/01/27 05:48:43;;;;;;;;;;;4.70;99.90;;;;;;5008106;28;19964;-72
2023/01/27 05:51:09;;;;;;;;;;;4.70;99.90;;;;;;5009843;28;19909;-71
2023/01/27 05:53:35;;;;;;;;;;;4.70;99.90;;;;;;5015531;28;20581;-71
2023/01/27 05:56:01;;;;;;;;;;;4.70;99.90;;;;;;5013636;28;20590;-72
2023/01/27 05:58:27;;;;;;;;;;;4.70;99.90;;;;;;5012812;28;19987;-72
2023/01/27 06:00:53;;;;;;;;;;;4.70;99.90;;;;;;5023941;28;19913;-72
2023/01/27 06:03:19;;;;;;;;;;;4.80;99.90;;;;;;5028289;28;19976;-71
2023/01/27 06:05:56;;;;;;;;;;;4.70;99.90;;;;;;5007443;28;19925;-71
2023/01/27 06:08:23;;;;;;;;;;;4.70;99.90;;;;;;5010585;28;19957;-70
2023/01/27 06:10:49;;;;;;;;;;;4.70;99.90;;;;;;5027075;28;19921;-72
2023/01/27 06:13:15;;;;;;;;;;;4.70;99.90;;;;;;5017827;28;20373;-70
2023/01/27 06:15:41;;;;;;;;;;;4.70;99.90;;;;;;5008573;28;19914;-71
2023/01/27 06:18:07;;;;;;;;;;;4.80;99.90;;;;;;5010759;28;20043;-70
2023/01/27 06:20:32;;;;;;;;;;;4.80;99.90;;;;;;5008113;28;19964;-71
2023/01/27 06:22:58;;;;;;;;;;;4.80;99.90;;;;;;5005111;28;20584;-72
2023/01/27 06:25:24;;;;;;;;;;;4.80;99.90;;;;;;5006110;28;19929;-73
2023/01/27 06:27:53;;;;;;;;;;;4.80;99.90;;;;;;5004193;28;19913;-72
2023/01/27 06:30:21;;;;;;;;;;;4.80;99.90;;;;;;4997626;28;19917;-72
2023/01/27 06:32:47;;;;;;;;;;;4.80;99.90;;;;;;4995722;28;19924;-71
2023/01/27 06:35:13;;;;;;;;;;;4.80;99.90;;;;;;5004169;28;20040;-72
2023/01/27 06:37:38;;;;;;;;;;;4.80;99.90;;;;;;5011421;28;20017;-71
2023/01/27 06:40:04;;;;;;;;;;;4.90;99.90;;;;;;5004658;28;19909;-71
2023/01/27 06:42:29;;;;;;;;;;;4.90;99.90;;;;;;5009849;28;19913;-70
2023/01/27 06:44:55;;;;;;;;;;;5.00;99.90;;;;;;5011094;28;20534;-71
2023/01/27 06:47:21;;;;;;;;;;;4.90;99.90;;;;;;5011305;28;20490;-71
2023/01/27 06:49:46;;;;;;;;;;;4.90;99.90;;;;;;5020948;28;19936;-71
2023/01/27 06:52:12;;;;;;;;;;;4.90;99.90;;;;;;5007851;28;19983;-72
2023/01/27 06:54:37;;;;;;;;;;;4.90;99.90;;;;;;5007611;28;19920;-72
2023/01/27 06:57:03;;;;;;;;;;;5.00;99.90;;;;;;5001737;28;19914;-71
2023/01/27 06:59:28;;;;;;;;;;;4.90;99.90;;;;;;5012175;28;20003;-74
2023/01/27 07:01:54;;;;;;;;;;;4.90;99.90;;;;;;5011206;28;19913;-72
2023/01/27 07:04:19;;;;;;;;;;;4.90;99.90;;;;;;5014204;28;19920;-72
2023/01/27 07:06:45;;;;;;;;;;;4.90;99.90;;;;;;5008156;28;19976;-72
2023/01/27 07:09:10;;;;;;;;;;;4.80;99.90;;;;;;5016122;28;19917;-72
2023/01/27 07:11:38;;;;;;;;;;;4.80;99.90;;;;;;5015233;28;20477;-73
2023/01/27 07:14:04;;;;;;;;;;;4.80;99.90;;;;;;5023724;28;19909;-73
2023/01/27 07:16:30;;;;;;;;;;;4.80;99.90;;;;;;5008549;28;19909;-73
2023/01/27 07:18:55;;;;;;;;;;;4.80;99.90;;;;;;5006197;28;20008;-72
2023/01/27 07:21:21;;;;;;;;;;;4.80;99.90;;;;;;5017514;28;20027;-71
2023/01/27 07:23:46;;;;;;;;;;;4.80;99.90;;;;;;5010027;28;19917;-74
2023/01/27 07:26:12;;;;;;;;;;;4.90;99.90;;;;;;5009587;28;20572;-72
2023/01/27 07:28:38;;;;;;;;;;;4.80;99.90;;;;;;5004687;28;19918;-73
2023/01/27 07:31:03;;;;;;;;;;;4.80;99.90;;;;;;5006723;28;19910;-74
2023/01/27 07:33:29;;;;;;;;;;;4.70;99.90;;;;;;5002233;28;20513;-74
2023/01/27 07:35:54;;;;;;;;;;;4.70;99.90;;;;;;5021011;28;19915;-72
2023/01/27 07:38:22;;;;;;;;;;;4.70;99.90;;;;;;5016126;28;19910;-73
2023/01/27 07:40:48;;;;;;;;;;;4.70;99.90;;;;;;5007353;28;19918;-74
2023/01/27 07:43:14;;;;;;;;;;;4.70;99.90;;;;;;5006515;28;19990;-73
2023/01/27 07:45:39;;;;;;;;;;;4.70;99.90;;;;;;5015759;28;19913;-71
2023/01/27 07:48:06;;;;;;;;;;;4.70;99.90;;;;;;5012511;28;19913;-71
2023/01/27 07:50:32;;;;;;;;;;;4.70;99.90;;;;;;5017013;28;19960;-73
2023/01/27 07:52:59;;;;;;;;;;;4.70;99.90;;;;;;5015463;28;19909;-70
2023/01/27 07:55:24;;;;;;;;;;;4.70;99.90;;;;;;5020015;28;19937;-70
2023/01/27 07:57:52;;;;;;;;;;;4.70;99.90;;;;;;5012013;28;20318;-73
2023/01/27 08:00:20;;;;;;;;;;;4.80;99.90;;;;;;5002953;28;19909;-72
2023/01/27 08:02:49;;;;;;;;;;;4.70;99.90;;;;;;5004557;28;20506;-71
2023/01/27 08:05:15;;;;;;;;;;;4.70;99.90;;;;;;5014356;28;19909;-71
2023/01/27 08:07:40;;;;;;;;;;;4.60;99.90;;;;;;5020904;28;19925;-72
2023/01/27 08:10:06;;;;;;;;;;;4.60;99.90;;;;;;5019507;28;19913;-72
2023/01/27 08:12:31;;;;;;;;;;;4.60;99.90;;;;;;5012426;28;20402;-76
2023/01/27 08:14:57;;;;;;;;;;;4.60;99.90;;;;;;5015818;28;19951;-74
2023/01/27 08:17:22;;;;;;;;;;;4.60;99.90;;;;;;5009608;28;20436;-73
2023/01/27 08:19:50;;;;;;;;;;;4.60;99.90;;;;;;5015919;28;20367;-74
2023/01/27 08:22:19;;;;;;;;;;;4.70;99.90;;;;;;5012936;28;19913;-73
2023/01/27 08:24:45;;;;;;;;;;;4.70;99.90;;;;;;5002013;28;19947;-73
2023/01/27 08:27:11;;;;;;;;;;;4.60;99.90;;;;;;5005755;28;20012;-73
2023/01/27 08:29:36;;;;;;;;;;;4.60;99.90;;;;;;5013413;28;20697;-75
2023/01/27 08:32:02;;;;;;;;;;;4.60;99.90;;;;;;5027984;28;19910;-74
2023/01/27 08:34:28;;;;;;;;;;;4.60;99.90;;;;;;5019232;28;19917;-75
2023/01/27 08:36:53;;;;;;;;;;;4.60;99.90;;;;;;5022991;28;19997;-78
2023/01/27 08:39:19;;;;;;;;;;;4.60;99.90;;;;;;5033832;28;20138;-75
2023/01/27 08:41:44;;;;;;;;;;;4.60;99.90;;;;;;5013612;28;19910;-73
2023/01/27 08:44:10;;;;;;;;;;;4.60;99.90;;;;;;5012984;28;20322;-74
2023/01/27 08:46:35;;;;;;;;;;;4.60;99.90;;;;;;5020350;28;20004;-72
2023/01/27 08:49:02;;;;;;;;;;;4.60;99.90;;;;;;5014133;28;20286;-73
2023/01/27 08:51:27;;;;;;;;;;;4.60;99.90;;;;;;5008089;28;19910;-74
2023/01/27 08:53:53;;;;;;;;;;;4.60;99.90;;;;;;5028312;28;20336;-73
2023/01/27 08:56:18;;;;;;;;;;;4.70;99.90;;;;;;5000876;28;19957;-74
2023/01/27 08:58:46;;;;;;;;;;;4.60;99.90;;;;;;5022418;28;19963;-75
2023/01/27 09:01:11;;;;;;;;;;;4.70;99.90;;;;;;5029305;28;19913;-75
2023/01/27 09:03:37;;;;;;;;;;;4.70;99.90;;;;;;5036406;28;19931;-76
2023/01/27 09:06:03;;;;;;;;;;;4.70;99.90;;;;;;5025388;28;19933;-75
2023/01/27 09:08:29;;;;;;;;;;;4.60;99.90;;;;;;5034075;28;19944;-78
2023/01/27 09:10:55;;;;;;;;;;;4.60;99.90;;;;;;5027994;28;19971;-78
2023/01/27 09:13:23;;;;;;;;;;;4.60;99.90;;;;;;5031155;28;19960;-73
2023/01/27 09:15:50;;;;;;;;;;;4.60;99.90;;;;;;5010195;28;19940;-78
2023/01/27 09:18:15;;;;;;;;;;;4.50;99.90;;;;;;5017330;28;19916;-76
2023/01/27 09:20:41;;;;;;;;;;;4.60;99.90;;;;;;5006627;28;19918;-71
2023/01/27 09:23:06;;;;;;;;;;;4.60;99.90;;;;;;5004096;28;20402;-71
2023/01/27 09:25:31;;;;;;;;;;;4.50;99.90;;;;;;4999034;28;19914;-71
2023/01/27 09:27:58;;;;;;;;;;;4.50;99.90;;;;;;5018001;28;19916;-71
2023/01/27 09:30:24;;;;;;;;;;;4.60;99.90;;;;;;5022033;28;19917;-71
2023/01/27 09:32:50;;;;;;;;;;;4.60;99.90;;;;;;5024626;28;19909;-71
2023/01/27 09:35:15;;;;;;;;;;;4.60;99.90;;;;;;5013486;28;19976;-70
2023/01/27 09:37:48;;;;;;;;;;;4.60;99.90;;;;;;5031005;28;19909;-71
2023/01/27 09:40:32;;;;;;;;;;;4.60;99.90;;;;;;5009624;28;19985;-71
2023/01/27 09:43:04;;;;;;;;;;;4.60;99.90;;;;;;5015295;28;19909;-71
2023/01/27 09:45:38;;;;;;;;;;;4.60;99.90;;;;;;5011783;28;19914;-70
2023/01/27 09:48:13;;;;;;;;;;;4.60;99.90;;;;;;5009405;28;19955;-74
2023/01/27 09:50:43;;;;;;;;;;;4.70;99.90;;;;;;5005378;28;20353;-72
2023/01/27 09:53:13;;;;;;;;;;;4.80;99.90;;;;;;5010937;28;19932;-71
2023/01/27 09:55:38;;;;;;;;;;;4.80;99.90;;;;;;5001569;28;19952;-72
2023/01/27 09:58:03;;;;;;;;;;;4.70;99.90;;;;;;5002935;28;19913;-71
2023/01/27 10:00:32;;;;;;;;;;;4.70;99.90;;;;;;5001335;28;19918;-72
2023/01/27 10:03:16;;;;;;;;;;;4.70;99.90;;;;;;4997757;28;19917;-71
2023/01/27 10:06:06;;;;;;;;;;;4.80;99.90;;;;;;5005034;28;19913;-71
2023/01/27 10:08:32;;;;;;;;;;;4.90;99.90;;;;;;5009581;28;19918;-72
2023/01/27 10:11:06;;;;;;;;;;;4.90;99.90;;;;;;5004319;28;19978;-70
2023/01/27 10:13:35;;;;;;;;;;;4.90;99.90;;;;;;4995458;28;20013;-71
2023/01/27 10:16:08;;;;;;;;;;;4.90;99.90;;;;;;5010415;28;19947;-72
2023/01/27 10:18:44;;;;;;;;;;;4.90;99.90;;;;;;5009146;28;19917;-70
2023/01/27 10:21:12;;;;;;;;;;;5.00;99.90;;;;;;5000158;28;20397;-72
2023/01/27 10:24:01;;;;;;;;;;;5.00;99.90;;;;;;5003956;28;19936;-72
2023/01/27 10:26:30;;;;;;;;;;;5.00;99.90;;;;;;4992482;28;19917;-71
2023/01/27 10:29:19;;;;;;;;;;;5.10;99.90;;;;;;5010934;28;20337;-70
2023/01/27 10:31:45;;;;;;;;;;;5.00;99.90;;;;;;4997461;28;19913;-71
2023/01/27 10:34:25;;;;;;;;;;;5.00;99.90;;;;;;5008665;28;19914;-71
2023/01/27 10:36:57;;;;;;;;;;;5.00;99.90;;;;;;4995845;28;20299;-70
2023/01/27 10:39:35;;;;;;;;;;;4.90;99.90;;;;;;5007630;28;19955;-71
2023/01/27 10:42:13;;;;;;;;;;;4.90;99.90;;;;;;5016571;28;19909;-71
2023/01/27 10:44:55;;;;;;;;;;;4.90;99.90;;;;;;5009483;28;19918;-72
2023/01/27 10:47:38;;;;;;;;;;;5.00;99.90;;;;;;5014281;28;20113;-71
2023/01/27 10:50:12;;;;;;;;;;;4.90;99.90;;;;;;5002628;28;19944;-71
2023/01/27 10:52:45;;;;;;;;;;;4.90;99.90;;;;;;5002667;28;19910;-73
2023/01/27 10:55:30;;;;;;;;;;;5.00;99.90;;;;;;5011520;28;19916;-71
2023/01/27 10:57:59;;;;;;;;;;;5.10;99.90;;;;;;5016466;28;19909;-72
2023/01/27 11:00:34;;;;;;;;;;;5.10;99.90;;;;;;5004720;28;19910;-72
2023/01/27 11:03:12;;;;;;;;;;;5.10;99.90;;;;;;5008054;28;19910;-71
2023/01/27 11:05:40;;;;;;;;;;;5.00;99.90;;;;;;5005685;28;19917;-71
2023/01/27 11:08:16;;;;;;;;;;;5.10;99.90;;;;;;5007395;28;19918;-71
2023/01/27 11:11:43;;;;;;;;;;;5.10;99.90;;;;;;5018456;28;19910;-71
2023/01/27 11:13:31;;;;;;;;;;;5.10;99.90;;;;;;5015775;28;19951;-71
2023/01/27 11:15:57;;;;;;;;;;;5.10;99.90;;;;;;5014226;28;19913;-70
2023/01/27 11:18:25;;;;;;;;;;;5.20;99.90;;;;;;5011306;28;20016;-71
2023/01/27 11:20:56;;;;;;;;;;;5.20;99.90;;;;;;5007511;28;19970;-70
2023/01/27 11:23:26;;;;;;;;;;;5.30;99.90;;;;;;5013743;28;19910;-71
2023/01/27 11:26:10;;;;;;;;;;;5.40;99.90;;;;;;5012258;28;19920;-70
2023/01/27 11:28:36;;;;;;;;;;;5.40;99.90;;;;;;5001142;28;19909;-72
2023/01/27 11:31:07;;;;;;;;;;;5.30;99.90;;;;;;5008597;28;19916;-70
2023/01/27 11:33:43;;;;;;;;;;;5.20;99.90;;;;;;5016128;28;20606;-70
2023/01/27 11:36:08;;;;;;;;;;;5.20;99.90;;;;;;5004619;28;19987;-72
2023/01/27 11:38:34;;;;;;;;;;;5.20;99.90;;;;;;5016426;28;20363;-70
2023/01/27 11:40:59;;;;;;;;;;;5.20;99.90;;;;;;5014452;28;19909;-71
2023/01/27 11:43:25;;;;;;;;;;;5.30;99.90;;;;;;5014128;28;19916;-71
2023/01/27 11:45:57;;;;;;;;;;;5.30;99.90;;;;;;5014292;28;19913;-73
2023/01/27 11:48:23;;;;;;;;;;;5.30;99.90;;;;;;5012285;28;19933;-72
2023/01/27 11:50:48;;;;;;;;;;;5.30;99.90;;;;;;5012845;28;19917;-71
2023/01/27 11:53:28;;;;;;;;;;;5.40;99.90;;;;;;5005345;28;19918;-70
2023/01/27 11:55:56;;;;;;;;;;;5.40;99.90;;;;;;5001288;28;19971;-71
2023/01/27 11:58:26;;;;;;;;;;;5.30;99.90;;;;;;5003611;28;20430;-72
2023/01/27 12:00:54;;;;;;;;;;;5.30;99.90;;;;;;5007500;28;19957;-71
2023/01/27 12:03:23;;;;;;;;;;;5.30;99.90;;;;;;5012803;28;19916;-71
2023/01/27 12:05:55;;;;;;;;;;;5.30;99.90;;;;;;5007219;28;19921;-72
2023/01/27 12:08:34;;;;;;;;;;;5.30;99.90;;;;;;5008862;28;19917;-72
2023/01/27 12:11:15;;;;;;;;;;;5.30;99.90;;;;;;5007534;28;19913;-71
2023/01/27 12:13:46;;;;;;;;;;;5.30;99.90;;;;;;5004612;28;19913;-72
2023/01/27 12:16:12;;;;;;;;;;;5.30;99.90;;;;;;5011160;28;19913;-72
2023/01/27 12:18:46;;;;;;;;;;;5.20;99.90;;;;;;5017138;28;19925;-70
2023/01/27 12:21:12;;;;;;;;;;;5.20;99.90;;;;;;5022940;28;19929;-71
2023/01/27 12:23:49;;;;;;;;;;;5.20;99.90;;;;;;5019190;28;19917;-71
2023/01/27 12:26:15;;;;;;;;;;;5.20;99.90;;;;;;5010272;28;20396;-72
2023/01/27 12:28:40;;;;;;;;;;;5.20;99.90;;;;;;5009494;28;19909;-73
2023/01/27 12:31:08;;;;;;;;;;;5.30;99.90;;;;;;5015343;28;19909;-72
2023/01/27 12:33:35;;;;;;;;;;;5.30;99.90;;;;;;5015081;28;20525;-72
2023/01/27 12:36:04;;;;;;;;;;;5.30;99.90;;;;;;5013737;28;20295;-72
2023/01/27 12:38:35;;;;;;;;;;;5.30;99.90;;;;;;5011282;28;19913;-71
2023/01/27 12:41:02;;;;;;;;;;;5.10;99.90;;;;;;5012372;28;19968;-71
2023/01/27 12:43:28;;;;;;;;;;;5.10;99.90;;;;;;5019626;28;19910;-72
2023/01/27 12:46:02;;;;;;;;;;;5.00;99.90;;;;;;4997586;28;19986;-72
2023/01/27 12:48:32;;;;;;;;;;;5.00;99.90;;;;;;5010296;28;19924;-72
2023/01/27 12:51:12;;;;;;;;;;;5.00;99.90;;;;;;5014542;28;20290;-75
2023/01/27 12:53:42;;;;;;;;;;;5.00;99.90;;;;;;5011739;28;19910;-74
2023/01/27 12:56:10;;;;;;;;;;;4.90;99.90;;;;;;5003852;28;19918;-75
2023/01/27 12:58:39;;;;;;;;;;;5.00;99.90;;;;;;5011954;28;19909;-74
2023/01/27 13:01:19;;;;;;;;;;;5.00;99.90;;;;;;4998943;28;19910;-73
2023/01/27 13:03:48;;;;;;;;;;;5.10;99.90;;;;;;4995469;28;19953;-75
2023/01/27 13:06:14;;;;;;;;;;;5.20;99.90;;;;;;5004473;28;20466;-73
2023/01/27 13:08:40;;;;;;;;;;;5.10;99.90;;;;;;5016437;28;19977;-73
2023/01/27 13:11:06;;;;;;;;;;;5.10;99.90;;;;;;5017231;28;19913;-75
2023/01/27 13:13:32;;;;;;;;;;;5.00;99.90;;;;;;5008851;28;20295;-73
2023/01/27 13:16:03;;;;;;;;;;;5.00;99.90;;;;;;5009690;28;19913;-74
2023/01/27 13:18:41;;;;;;;;;;;5.10;99.90;;;;;;5010363;28;19941;-74
2023/01/27 13:21:16;;;;;;;;;;;5.20;99.90;;;;;;5005625;28;19913;-73
2023/01/27 13:23:41;;;;;;;;;;;5.00;99.90;;;;;;5007714;28;19914;-73
2023/01/27 13:26:07;;;;;;;;;;;5.00;99.90;;;;;;5015464;28;19974;-73
2023/01/27 13:28:32;;;;;;;;;;;5.00;99.90;;;;;;5014687;28;19933;-75
2023/01/27 13:31:02;;;;;;;;;;;5.00;99.90;;;;;;5012719;28;19996;-73
2023/01/27 13:33:46;;;;;;;;;;;4.90;99.90;;;;;;5011301;28;19949;-76
2023/01/27 13:36:31;;;;;;;;;;;5.00;99.90;;;;;;5012416;28;19913;-73
2023/01/27 13:39:17;;;;;;;;;;;4.90;99.90;;;;;;5003193;28;19909;-72
2023/01/27 13:42:01;;;;;;;;;;;4.90;99.90;;;;;;5007945;28;19914;-74
2023/01/27 13:44:39;;;;;;;;;;;5.00;99.90;;;;;;5005454;28;19917;-73
2023/01/27 13:47:11;;;;;;;;;;;4.90;99.90;;;;;;5003034;28;20656;-73
2023/01/27 13:49:39;;;;;;;;;;;4.90;99.90;;;;;;5008528;28;19913;-75
2023/01/27 13:52:05;;;;;;;;;;;5.00;99.90;;;;;;5013178;28;20481;-73
2023/01/27 13:54:31;;;;;;;;;;;4.80;99.90;;;;;;5004219;28;20044;-74
2023/01/27 13:56:59;;;;;;;;;;;4.80;99.90;;;;;;5017955;28;20402;-77
2023/01/27 13:59:25;;;;;;;;;;;4.90;99.90;;;;;;5007593;28;19913;-75
2023/01/27 14:01:54;;;;;;;;;;;4.90;99.90;;;;;;5008594;28;20467;-73
2023/01/27 14:04:22;;;;;;;;;;;4.80;99.90;;;;;;5005912;28;19909;-74
2023/01/27 14:06:57;;;;;;;;;;;4.80;99.90;;;;;;5005203;28;19930;-74
2023/01/27 14:09:39;;;;;;;;;;;4.90;99.90;;;;;;5004453;28;19909;-74
2023/01/27 14:12:23;;;;;;;;;;;4.90;99.90;;;;;;5018917;28;19921;-76
2023/01/27 14:14:55;;;;;;;;;;;4.90;99.90;;;;;;5007231;28;19925;-73
2023/01/27 14:17:39;;;;;;;;;;;5.00;99.90;;;;;;5002927;28;19955;-75
2023/01/27 14:20:11;;;;;;;;;;;5.00;99.90;;;;;;5005635;28;19993;-74
2023/01/27 14:22:45;;;;;;;;;;;5.00;99.90;;;;;;4997458;28;19996;-74
2023/01/27 14:25:20;;;;;;;;;;;5.00;99.90;;;;;;5002084;28;20013;-73
2023/01/27 14:27:48;;;;;;;;;;;5.00;99.90;;;;;;5011681;28;19914;-75
2023/01/27 14:30:30;;;;;;;;;;;5.00;99.90;;;;;;5002655;28;20478;-73
2023/01/27 14:32:55;;;;;;;;;;;5.00;99.90;;;;;;5006765;28;20381;-75
2023/01/27 14:35:36;;;;;;;;;;;5.00;99.90;;;;;;5013645;28;19955;-74
2023/01/27 14:38:01;;;;;;;;;;;5.10;99.90;;;;;;5003477;28;19964;-74
2023/01/27 14:40:40;;;;;;;;;;;5.10;99.90;;;;;;4999426;28;19945;-73
2023/01/27 14:43:18;;;;;;;;;;;5.10;99.90;;;;;;5008043;28;19935;-73
2023/01/27 14:45:47;;;;;;;;;;;5.10;99.90;;;;;;5003438;28;19913;-73
2023/01/27 14:48:17;;;;;;;;;;;5.10;99.90;;;;;;5012820;28;19913;-75
2023/01/27 14:51:00;;;;;;;;;;;5.10;99.90;;;;;;4996043;28;19909;-74
2023/01/27 14:53:34;;;;;;;;;;;5.10;99.90;;;;;;5003118;28;19910;-73
2023/01/27 14:56:04;;;;;;;;;;;5.10;99.90;;;;;;5011119;28;19914;-74
2023/01/27 14:58:36;;;;;;;;;;;5.00;99.90;;;;;;5013536;28;19909;-73
2023/01/27 15:01:20;;;;;;;;;;;5.00;99.90;;;;;;5004995;28;19953;-73
2023/01/27 15:04:04;;;;;;;;;;;5.00;99.90;;;;;;5004515;28;19971;-74
2023/01/27 15:06:30;;;;;;;;;;;5.00;99.90;;;;;;5011031;28;19917;-74
2023/01/27 15:09:03;;;;;;;;;;;5.00;99.90;;;;;;5007840;28;20374;-73
2023/01/27 15:11:49;;;;;;;;;;;5.00;99.90;;;;;;5007347;28;19917;-75